Polaris — LZFK — position and weather

sailwx.info

Track history (hours):
 
Tides and Currents Weather Stations Pressure Air Temp Water Temp Dewpoint Dewpoint Depression Visibility Wind Speed Wind Dir Waves Ship Positions

Polaris

Last reported at 2018-Apr-26 21:48 UTC. Time now 2018-Apr-26 23:02 UTC.
Position N 45°22' E 037°19'.

Length 82 m; draft 4.4 m.

Type: Ship (hazmat cat C). MMSI: 207345200.

Date/timePositionNaut miles runAvg speedWind from/ knotsBaromVisibWave heightAir tempDewpointWater temp
2018-Apr-26 21:48N 45°22' E 037°19'0 0.1
2018-Apr-26 21:24N 45°22' E 037°19'20 2.2
2018-Apr-26 12:15N 45°33' E 036°54'2 6.7
2018-Apr-26 12:00N 45°32' E 036°52'4 7.5
2018-Apr-26 11:30N 45°31' E 036°47'4 7.4
2018-Apr-26 11:00N 45°29' E 036°43'4 7.2
2018-Apr-26 10:30N 45°25' E 036°42'3 6.4
2018-Apr-26 10:00N 45°22' E 036°40'3 6.6
2018-Apr-26 09:30N 45°20' E 036°37'4 7.4
2018-Apr-26 09:00N 45°19' E 036°32'3 6.5
2018-Apr-26 08:30N 45°17' E 036°29'3 6.3
2018-Apr-26 08:00N 45°13' E 036°29'1 2.6
2018-Apr-26 07:29N 45°12' E 036°30'0 0.6
2018-Apr-26 07:00N 45°12' E 036°30'1 0.8
2018-Apr-26 05:37N 45°11' E 036°31'0 0.0
2018-Apr-26 05:19N 45°11' E 036°31'0 0.0
2018-Apr-26 04:58N 45°11' E 036°31'0 0.0
2018-Apr-26 04:19N 45°11' E 036°31'0 0.0
2018-Apr-26 03:55N 45°11' E 036°31'0 0.0
2018-Apr-25 16:13N 45°11' E 036°31'0 0.0
2018-Apr-25 13:22N 45°11' E 036°31'0 0.0
2018-Apr-25 09:07N 45°11' E 036°31'0 0.0
2018-Apr-25 08:52N 45°11' E 036°31'0 0.0
2018-Apr-25 08:28N 45°11' E 036°31'0 0.0
2018-Apr-25 06:40N 45°11' E 036°31'0 0.0
2018-Apr-25 03:46N 45°11' E 036°31'39 4.1
2018-Apr-24 18:15N 44°40' E 035°57'240 6.7
2018-Apr-23 06:32N 43°15' E 030°46'0 6.7
2018-Apr-23 06:30N 43°15' E 030°45'5 7.0
2018-Apr-23 05:46N 43°13' E 030°39'2 7.0
2018-Apr-23 05:30N 43°12' E 030°37'4 6.9
2018-Apr-23 05:00N 43°11' E 030°32'3 6.8
2018-Apr-23 04:30N 43°10' E 030°28'55 6.8
2018-Apr-22 20:18N 42°50' E 029°17'2 6.4
2018-Apr-22 20:00N 42°49' E 029°15'  
2018-Apr-17 06:56N 44°47' E 036°24'14 6.4
2018-Apr-17 04:48N 44°60' E 036°29'2 6.9
2018-Apr-17 04:28N 45°02' E 036°29'3 6.9
2018-Apr-17 04:00N 45°05' E 036°30'3 6.8
2018-Apr-17 03:30N 45°09' E 036°28'3 6.5
2018-Apr-17 03:01N 45°12' E 036°28'3 6.5
2018-Apr-17 02:30N 45°15' E 036°28'3 5.9
2018-Apr-17 02:00N 45°18' E 036°29'3 6.0
2018-Apr-17 01:31N 45°19' E 036°33'3 5.9
2018-Apr-17 01:00N 45°20' E 036°37'3 5.7
2018-Apr-17 00:30N 45°22' E 036°40'3 6.3
2018-Apr-17 00:00N 45°25' E 036°41'4 6.6
2018-Apr-16 23:29N 45°29' E 036°42'4 6.7
2018-Apr-16 22:53N 45°32' E 036°46'4 5.2
2018-Apr-16 22:02N 45°33' E 036°52'0 6.8
2018-Apr-16 22:01N 45°33' E 036°52'  
Track history (hours):
 
Tides and Currents Weather Stations Pressure Air Temp Water Temp Dewpoint Dewpoint Depression Visibility Wind Speed Wind Dir Waves Ship Positions

Polaris

Last reported at 2018-Apr-26 21:48 UTC. Time now 2018-Apr-26 23:02 UTC.
Position N 45°22' E 037°19'.

Length 82 m; draft 4.4 m.

Type: Ship (hazmat cat C). MMSI: 207345200.

Date/timePositionNaut miles runAvg speedWind from/ knotsBaromVisibWave heightAir tempDewpointWater temp
2018-Apr-26 21:48N 45°22' E 037°19'0 0.1
2018-Apr-26 21:24N 45°22' E 037°19'20 2.2
2018-Apr-26 12:15N 45°33' E 036°54'2 6.7
2018-Apr-26 12:00N 45°32' E 036°52'4 7.5
2018-Apr-26 11:30N 45°31' E 036°47'4 7.4
2018-Apr-26 11:00N 45°29' E 036°43'4 7.2
2018-Apr-26 10:30N 45°25' E 036°42'3 6.4
2018-Apr-26 10:00N 45°22' E 036°40'3 6.6
2018-Apr-26 09:30N 45°20' E 036°37'4 7.4
2018-Apr-26 09:00N 45°19' E 036°32'3 6.5
2018-Apr-26 08:30N 45°17' E 036°29'3 6.3
2018-Apr-26 08:00N 45°13' E 036°29'1 2.6
2018-Apr-26 07:29N 45°12' E 036°30'0 0.6
2018-Apr-26 07:00N 45°12' E 036°30'1 0.8
2018-Apr-26 05:37N 45°11' E 036°31'0 0.0
2018-Apr-26 05:19N 45°11' E 036°31'0 0.0
2018-Apr-26 04:58N 45°11' E 036°31'0 0.0
2018-Apr-26 04:19N 45°11' E 036°31'0 0.0
2018-Apr-26 03:55N 45°11' E 036°31'0 0.0
2018-Apr-25 16:13N 45°11' E 036°31'0 0.0
2018-Apr-25 13:22N 45°11' E 036°31'0 0.0
2018-Apr-25 09:07N 45°11' E 036°31'0 0.0
2018-Apr-25 08:52N 45°11' E 036°31'0 0.0
2018-Apr-25 08:28N 45°11' E 036°31'0 0.0
2018-Apr-25 06:40N 45°11' E 036°31'0 0.0
2018-Apr-25 03:46N 45°11' E 036°31'39 4.1
2018-Apr-24 18:15N 44°40' E 035°57'240 6.7
2018-Apr-23 06:32N 43°15' E 030°46'0 6.7
2018-Apr-23 06:30N 43°15' E 030°45'5 7.0
2018-Apr-23 05:46N 43°13' E 030°39'2 7.0
2018-Apr-23 05:30N 43°12' E 030°37'4 6.9
2018-Apr-23 05:00N 43°11' E 030°32'3 6.8
2018-Apr-23 04:30N 43°10' E 030°28'55 6.8
2018-Apr-22 20:18N 42°50' E 029°17'2 6.4
2018-Apr-22 20:00N 42°49' E 029°15'  
2018-Apr-17 06:56N 44°47' E 036°24'14 6.4
2018-Apr-17 04:48N 44°60' E 036°29'2 6.9
2018-Apr-17 04:28N 45°02' E 036°29'3 6.9
2018-Apr-17 04:00N 45°05' E 036°30'3 6.8
2018-Apr-17 03:30N 45°09' E 036°28'3 6.5
2018-Apr-17 03:01N 45°12' E 036°28'3 6.5
2018-Apr-17 02:30N 45°15' E 036°28'3 5.9
2018-Apr-17 02:00N 45°18' E 036°29'3 6.0
2018-Apr-17 01:31N 45°19' E 036°33'3 5.9
2018-Apr-17 01:00N 45°20' E 036°37'3 5.7
2018-Apr-17 00:30N 45°22' E 036°40'3 6.3
2018-Apr-17 00:00N 45°25' E 036°41'4 6.6
2018-Apr-16 23:29N 45°29' E 036°42'4 6.7
2018-Apr-16 22:53N 45°32' E 036°46'4 5.2
2018-Apr-16 22:02N 45°33' E 036°52'0 6.8
2018-Apr-16 22:01N 45°33' E 036°52'  

Dump ship's entire track history